Scout — WCZ2046 — position and weather

sailwx.info

Track history (hours):
 
Tides and Currents Weather Stations Pressure Air Temp Water Temp Dewpoint Dewpoint Depression Visibility Wind Speed Wind Dir Waves Ship Positions

Scout

Owner: Crowley Marine Services, SEATTLE, WA. More information available from US FCC via Universal Licensing System and Coast Guard Vessel Documentation Center.

Last reported at 2017-Nov-19 15:53 UTC. Time now 2017-Nov-21 23:10 UTC.
Position N 32°42' W 117°09'.

; draft 5.6 m.

Type: Tug. MMSI: 366764730.

Date/timePositionNaut miles runAvg speedWind from/ knotsBaromVisibWave heightAir tempDewpointWater temp
2017-Nov-19 15:53N 32°42' W 117°09'1 0.7
2017-Nov-19 14:13N 32°41' W 117°08'1 2.0
2017-Nov-19 13:40N 32°42' W 117°09'0 1.6
2017-Nov-19 13:30N 32°42' W 117°09'0 0.0
2017-Nov-19 01:38N 32°42' W 117°09'0 0.3
2017-Nov-19 01:28N 32°42' W 117°09'0 0.1
2017-Nov-19 01:00N 32°42' W 117°09'0 0.1
2017-Nov-19 00:25N 32°42' W 117°09'3 7.1
2017-Nov-18 23:59N 32°39' W 117°07'  
2017-Nov-16 15:35N 32°42' W 117°14'1 5.8
2017-Nov-16 15:30N 32°43' W 117°13'4 0.4
2017-Nov-16 05:00N 32°42' W 117°09'2 0.5
2017-Nov-16 00:13N 32°40' W 117°08'2 0.2
2017-Nov-15 13:35N 32°42' W 117°09'0 0.2
2017-Nov-15 13:19N 32°42' W 117°09'0 0.2
2017-Nov-15 13:00N 32°42' W 117°09'0 0.0
2017-Nov-15 11:40N 32°42' W 117°09'0 0.0
2017-Nov-15 11:30N 32°42' W 117°09'0 0.1
2017-Nov-15 10:56N 32°42' W 117°09'0 0.0
2017-Nov-15 07:58N 32°42' W 117°09'0 0.0
2017-Nov-15 03:41N 32°42' W 117°09'0 0.0
2017-Nov-15 03:30N 32°42' W 117°09'0 0.0
2017-Nov-15 00:02N 32°42' W 117°09'0 0.5
2017-Nov-14 23:56N 32°42' W 117°09'0 0.0
2017-Nov-14 23:30N 32°42' W 117°09'0 0.0
2017-Nov-14 21:11N 32°42' W 117°09'0 0.0
2017-Nov-14 21:00N 32°42' W 117°09'3 1.4
2017-Nov-14 18:56N 32°39' W 117°07'0 0.5
2017-Nov-14 18:28N 32°40' W 117°08'3 0.9
2017-Nov-14 15:38N 32°42' W 117°09'0 0.0
2017-Nov-14 15:29N 32°42' W 117°09'0 0.1
2017-Nov-14 14:59N 32°42' W 117°09'0 0.1
2017-Nov-14 14:30N 32°42' W 117°09'0 0.0
2017-Nov-14 14:00N 32°42' W 117°09'0 0.0
2017-Nov-14 09:37N 32°42' W 117°09'0 0.0
2017-Nov-14 09:30N 32°42' W 117°09'0 0.0
2017-Nov-14 08:49N 32°42' W 117°09'0 0.0
2017-Nov-14 03:01N 32°42' W 117°09'0 0.1
2017-Nov-14 02:58N 32°42' W 117°09'0 0.0
2017-Nov-13 21:46N 32°42' W 117°09'0 0.0
2017-Nov-13 01:37N 32°42' W 117°09'0 0.0
2017-Nov-13 01:12N 32°42' W 117°09'0 0.0
2017-Nov-13 00:54N 32°42' W 117°09'0 0.0
2017-Nov-13 00:30N 32°42' W 117°09'0 0.0
2017-Nov-13 00:00N 32°42' W 117°09'0 0.0
2017-Nov-12 23:18N 32°42' W 117°09'0 0.0
2017-Nov-12 22:59N 32°42' W 117°09'0 0.0
2017-Nov-12 21:58N 32°42' W 117°09'0 0.0
2017-Nov-12 21:30N 32°42' W 117°09'0 0.1
2017-Nov-12 20:51N 32°42' W 117°09'0 0.1
2017-Nov-12 20:25N 32°42' W 117°09'0 0.0
2017-Nov-12 18:52N 32°42' W 117°09'0 0.0
2017-Nov-12 18:25N 32°42' W 117°09'0 0.0
2017-Nov-12 17:57N 32°42' W 117°09'0 0.0
2017-Nov-12 17:22N 32°42' W 117°09'0 0.0
2017-Nov-12 17:00N 32°42' W 117°09'0 0.1
2017-Nov-12 16:22N 32°42' W 117°09'0 0.0
2017-Nov-12 16:00N 32°42' W 117°09'0 0.0
2017-Nov-12 15:21N 32°42' W 117°09'0 0.1
2017-Nov-12 15:00N 32°42' W 117°09'0 0.0
2017-Nov-12 14:22N 32°42' W 117°09'0 0.0
2017-Nov-12 13:57N 32°42' W 117°09'0 0.0
2017-Nov-12 13:30N 32°42' W 117°09'0 0.0
2017-Nov-12 13:00N 32°42' W 117°09'0 0.0
2017-Nov-12 12:30N 32°42' W 117°09'0 0.0
2017-Nov-12 09:34N 32°42' W 117°09'0 0.0
2017-Nov-12 09:30N 32°42' W 117°09'0 0.0
2017-Nov-12 06:21N 32°42' W 117°09'  
Track history (hours):
 
Tides and Currents Weather Stations Pressure Air Temp Water Temp Dewpoint Dewpoint Depression Visibility Wind Speed Wind Dir Waves Ship Positions

Scout

Owner: Crowley Marine Services, SEATTLE, WA. More information available from US FCC via Universal Licensing System and Coast Guard Vessel Documentation Center.

Last reported at 2017-Nov-19 15:53 UTC. Time now 2017-Nov-21 23:10 UTC.
Position N 32°42' W 117°09'.

; draft 5.6 m.

Type: Tug. MMSI: 366764730.

Date/timePositionNaut miles runAvg speedWind from/ knotsBaromVisibWave heightAir tempDewpointWater temp
2017-Nov-19 15:53N 32°42' W 117°09'1 0.7
2017-Nov-19 14:13N 32°41' W 117°08'1 2.0
2017-Nov-19 13:40N 32°42' W 117°09'0 1.6
2017-Nov-19 13:30N 32°42' W 117°09'0 0.0
2017-Nov-19 01:38N 32°42' W 117°09'0 0.3
2017-Nov-19 01:28N 32°42' W 117°09'0 0.1
2017-Nov-19 01:00N 32°42' W 117°09'0 0.1
2017-Nov-19 00:25N 32°42' W 117°09'3 7.1
2017-Nov-18 23:59N 32°39' W 117°07'  
2017-Nov-16 15:35N 32°42' W 117°14'1 5.8
2017-Nov-16 15:30N 32°43' W 117°13'4 0.4
2017-Nov-16 05:00N 32°42' W 117°09'2 0.5
2017-Nov-16 00:13N 32°40' W 117°08'2 0.2
2017-Nov-15 13:35N 32°42' W 117°09'0 0.2
2017-Nov-15 13:19N 32°42' W 117°09'0 0.2
2017-Nov-15 13:00N 32°42' W 117°09'0 0.0
2017-Nov-15 11:40N 32°42' W 117°09'0 0.0
2017-Nov-15 11:30N 32°42' W 117°09'0 0.1
2017-Nov-15 10:56N 32°42' W 117°09'0 0.0
2017-Nov-15 07:58N 32°42' W 117°09'0 0.0
2017-Nov-15 03:41N 32°42' W 117°09'0 0.0
2017-Nov-15 03:30N 32°42' W 117°09'0 0.0
2017-Nov-15 00:02N 32°42' W 117°09'0 0.5
2017-Nov-14 23:56N 32°42' W 117°09'0 0.0
2017-Nov-14 23:30N 32°42' W 117°09'0 0.0
2017-Nov-14 21:11N 32°42' W 117°09'0 0.0
2017-Nov-14 21:00N 32°42' W 117°09'3 1.4
2017-Nov-14 18:56N 32°39' W 117°07'0 0.5
2017-Nov-14 18:28N 32°40' W 117°08'3 0.9
2017-Nov-14 15:38N 32°42' W 117°09'0 0.0
2017-Nov-14 15:29N 32°42' W 117°09'0 0.1
2017-Nov-14 14:59N 32°42' W 117°09'0 0.1
2017-Nov-14 14:30N 32°42' W 117°09'0 0.0
2017-Nov-14 14:00N 32°42' W 117°09'0 0.0
2017-Nov-14 09:37N 32°42' W 117°09'0 0.0
2017-Nov-14 09:30N 32°42' W 117°09'0 0.0
2017-Nov-14 08:49N 32°42' W 117°09'0 0.0
2017-Nov-14 03:01N 32°42' W 117°09'0 0.1
2017-Nov-14 02:58N 32°42' W 117°09'0 0.0
2017-Nov-13 21:46N 32°42' W 117°09'0 0.0
2017-Nov-13 01:37N 32°42' W 117°09'0 0.0
2017-Nov-13 01:12N 32°42' W 117°09'0 0.0
2017-Nov-13 00:54N 32°42' W 117°09'0 0.0
2017-Nov-13 00:30N 32°42' W 117°09'0 0.0
2017-Nov-13 00:00N 32°42' W 117°09'0 0.0
2017-Nov-12 23:18N 32°42' W 117°09'0 0.0
2017-Nov-12 22:59N 32°42' W 117°09'0 0.0
2017-Nov-12 21:58N 32°42' W 117°09'0 0.0
2017-Nov-12 21:30N 32°42' W 117°09'0 0.1
2017-Nov-12 20:51N 32°42' W 117°09'0 0.1
2017-Nov-12 20:25N 32°42' W 117°09'0 0.0
2017-Nov-12 18:52N 32°42' W 117°09'0 0.0
2017-Nov-12 18:25N 32°42' W 117°09'0 0.0
2017-Nov-12 17:57N 32°42' W 117°09'0 0.0
2017-Nov-12 17:22N 32°42' W 117°09'0 0.0
2017-Nov-12 17:00N 32°42' W 117°09'0 0.1
2017-Nov-12 16:22N 32°42' W 117°09'0 0.0
2017-Nov-12 16:00N 32°42' W 117°09'0 0.0
2017-Nov-12 15:21N 32°42' W 117°09'0 0.1
2017-Nov-12 15:00N 32°42' W 117°09'0 0.0
2017-Nov-12 14:22N 32°42' W 117°09'0 0.0
2017-Nov-12 13:57N 32°42' W 117°09'0 0.0
2017-Nov-12 13:30N 32°42' W 117°09'0 0.0
2017-Nov-12 13:00N 32°42' W 117°09'0 0.0
2017-Nov-12 12:30N 32°42' W 117°09'0 0.0
2017-Nov-12 09:34N 32°42' W 117°09'0 0.0
2017-Nov-12 09:30N 32°42' W 117°09'0 0.0
2017-Nov-12 06:21N 32°42' W 117°09'  

Dump ship's entire track history